Time;durP1;ratioP1;P1;durP2;ratioP2;P2;SDS_P1;SDS_P2;PMS_P1;PMS_P2;Temp;Humidity;BMP_temperature;BMP_pressure;BME280_temperature;BME280_humidity;BME280_pressure;Samples;Min_cycle;Max_cycle;Signal;HPM_P1;HPM_P2
2021/06/29 00:00:37;;;;;;;69.28;49.47;;;18.50;99.90;;;;;;4164798;28;20048;-86
2021/06/29 00:02:37;;;;;;;69.35;47.70;;;18.60;99.90;;;;;;4164860;28;20095;-87
2021/06/29 00:04:38;;;;;;;64.20;49.13;;;18.50;99.90;;;;;;4164329;28;20479;-87
2021/06/29 00:06:39;;;;;;;67.18;51.22;;;18.50;99.90;;;;;;4163631;28;20037;-86
2021/06/29 00:08:40;;;;;;;64.40;49.28;;;18.60;99.90;;;;;;4163452;28;20129;-87
2021/06/29 00:10:40;;;;;;;64.80;48.25;;;18.60;99.90;;;;;;4157646;28;20079;-85
2021/06/29 00:12:42;;;;;;;70.00;50.30;;;18.60;99.90;;;;;;4156853;28;20541;-86
2021/06/29 00:14:45;;;;;;;65.90;47.45;;;18.70;99.90;;;;;;4153562;28;20033;-87
2021/06/29 00:16:46;;;;;;;;;;;18.70;99.90;;;;;;4154543;28;20484;-86
2021/06/29 00:18:47;;;;;;;62.33;46.85;;;18.60;99.90;;;;;;4150928;28;19910;-87
2021/06/29 00:20:48;;;;;;;63.47;47.67;;;18.60;99.90;;;;;;4152053;28;20049;-86
2021/06/29 00:22:49;;;;;;;68.93;47.03;;;18.50;99.90;;;;;;4164386;28;20087;-87
2021/06/29 00:24:50;;;;;;;65.68;49.17;;;18.50;99.90;;;;;;4164177;28;20072;-86
2021/06/29 00:26:53;;;;;;;64.43;47.03;;;18.50;99.90;;;;;;4164551;28;20056;-87
2021/06/29 00:28:57;;;;;;;59.53;46.30;;;18.50;99.90;;;;;;4163090;28;20033;-86
2021/06/29 00:31:04;;;;;;;63.22;45.28;;;18.50;99.90;;;;;;4150522;28;20120;-87
2021/06/29 00:33:09;;;;;;;58.15;45.13;;;18.70;99.90;;;;;;4163190;28;20492;-86
2021/06/29 00:35:13;;;;;;;59.80;46.13;;;18.80;99.90;;;;;;4162699;28;20033;-86
2021/06/29 00:37:14;;;;;;;58.20;43.60;;;18.80;99.90;;;;;;4163399;28;20025;-86
2021/06/29 00:39:17;;;;;;;53.45;41.10;;;18.70;99.90;;;;;;4163673;28;20388;-86
2021/06/29 00:41:18;;;;;;;53.63;41.97;;;18.70;99.90;;;;;;4162496;28;20033;-87
2021/06/29 00:43:20;;;;;;;60.00;44.97;;;18.70;99.90;;;;;;4163459;28;20126;-87
2021/06/29 00:45:29;;;;;;;56.05;41.50;;;18.70;99.90;;;;;;4163618;28;20053;-86
2021/06/29 00:47:31;;;;;;;51.85;38.92;;;18.80;99.90;;;;;;4162830;28;20065;-85
2021/06/29 00:49:32;;;;;;;54.67;39.92;;;18.70;99.90;;;;;;4161097;28;20033;-87
2021/06/29 00:51:33;;;;;;;57.35;42.00;;;18.70;99.90;;;;;;4162421;28;20096;-86
2021/06/29 00:53:36;;;;;;;47.67;39.03;;;18.70;99.90;;;;;;4163902;28;20045;-88
2021/06/29 00:55:38;;;;;;;53.22;38.30;;;18.80;99.90;;;;;;4163570;28;20496;-87
2021/06/29 00:57:44;;;;;;;49.97;39.33;;;18.80;99.90;;;;;;4164000;28;20040;-87
2021/06/29 00:59:45;;;;;;;48.33;37.65;;;18.70;99.90;;;;;;4164493;28;20033;-86
2021/06/29 01:01:45;;;;;;;50.53;38.05;;;18.80;99.90;;;;;;4163007;28;21020;-84
2021/06/29 01:03:46;;;;;;;55.22;39.22;;;18.80;99.90;;;;;;4162953;28;20065;-86
2021/06/29 01:05:47;;;;;;;48.53;37.53;;;18.70;99.90;;;;;;4164157;28;20485;-86
2021/06/29 01:07:48;;;;;;;47.80;36.50;;;18.70;99.90;;;;;;4164349;28;20041;-87
2021/06/29 01:09:54;;;;;;;52.03;38.15;;;18.70;99.90;;;;;;4164928;28;20034;-87
2021/06/29 01:11:55;;;;;;;49.30;37.10;;;18.70;99.90;;;;;;4163133;28;20064;-87
2021/06/29 01:14:16;;;;;;;50.25;37.90;;;18.60;99.90;;;;;;4162782;28;20524;-87
2021/06/29 01:16:17;;;;;;;54.67;36.50;;;18.70;99.90;;;;;;4164037;28;20065;-87
2021/06/29 01:18:18;;;;;;;44.22;36.55;;;18.60;99.90;;;;;;4159859;28;20119;-86
2021/06/29 01:20:26;;;;;;;51.33;39.08;;;18.60;99.90;;;;;;4162696;28;20042;-87
2021/06/29 01:22:28;;;;;;;50.63;38.20;;;18.70;99.90;;;;;;4163172;28;20041;-86
2021/06/29 01:24:31;;;;;;;53.53;36.42;;;18.70;99.90;;;;;;4163181;28;20030;-86
2021/06/29 01:26:45;;;;;;;47.92;37.28;;;18.70;99.90;;;;;;4164226;28;20396;-87
2021/06/29 01:31:05;;;;;;;49.15;37.42;;;18.60;99.90;;;;;;4165835;28;20040;-87
2021/06/29 01:33:18;;;;;;;50.28;37.45;;;18.70;99.90;;;;;;4155802;28;20037;-83
2021/06/29 01:35:20;;;;;;;51.80;36.78;;;18.60;99.90;;;;;;4167559;28;20064;-86
2021/06/29 01:37:22;;;;;;;48.33;37.05;;;18.60;99.90;;;;;;4166032;28;20525;-86
2021/06/29 01:39:24;;;;;;;42.83;35.58;;;18.60;99.90;;;;;;4165601;28;20048;-87
2021/06/29 01:41:26;;;;;;;48.47;35.28;;;18.50;99.90;;;;;;4165722;28;20049;-87
2021/06/29 01:43:33;;;;;;;47.13;35.65;;;18.40;99.90;;;;;;4166034;28;20793;-86
2021/06/29 01:45:35;;;;;;;51.60;36.10;;;18.50;99.90;;;;;;4163354;28;20036;-86
2021/06/29 01:49:46;;;;;;;51.63;37.80;;;18.40;99.90;;;;;;4166140;28;20084;-87
2021/06/29 01:51:53;;;;;;;51.70;39.17;;;18.40;99.90;;;;;;4166647;28;20032;-88
2021/06/29 01:53:56;;;;;;;44.47;36.25;;;18.40;99.90;;;;;;4166671;28;20536;-85
2021/06/29 01:55:59;;;;;;;44.65;33.70;;;18.30;99.90;;;;;;4166355;28;20045;-87
2021/06/29 01:58:14;;;;;;;52.75;37.55;;;18.40;99.90;;;;;;4163707;28;20044;-87
2021/06/29 02:00:16;;;;;;;50.90;34.88;;;18.40;99.90;;;;;;4153798;28;20025;-87
2021/06/29 02:02:17;;;;;;;42.42;33.22;;;18.40;99.90;;;;;;4166837;28;20041;-86
2021/06/29 02:04:23;;;;;;;47.75;35.47;;;18.40;99.90;;;;;;4163187;28;20017;-86
2021/06/29 02:06:24;;;;;;;42.67;32.55;;;18.40;99.90;;;;;;4166108;28;20044;-86
2021/06/29 02:08:26;;;;;;;48.40;33.53;;;18.30;99.90;;;;;;4165391;28;20033;-86
2021/06/29 02:10:29;;;;;;;60.38;36.35;;;18.30;99.90;;;;;;4165731;28;20064;-87
2021/06/29 02:12:29;;;;;;;57.85;36.30;;;18.40;99.90;;;;;;4165029;28;20528;-86
2021/06/29 02:14:30;;;;;;;57.63;35.83;;;18.30;99.90;;;;;;4166296;28;20105;-87
2021/06/29 02:16:37;;;;;;;59.75;36.95;;;18.40;99.90;;;;;;4155705;28;20049;-86
2021/06/29 02:18:38;;;;;;;69.50;38.88;;;18.40;99.90;;;;;;4168524;28;20041;-86
2021/06/29 02:20:42;;;;;;;61.10;38.15;;;18.40;99.90;;;;;;4166081;28;20099;-87
2021/06/29 02:22:45;;;;;;;65.40;38.75;;;18.40;99.90;;;;;;4164161;28;20029;-86
2021/06/29 02:24:46;;;;;;;;;;;18.40;99.90;;;;;;4165242;28;20044;-83
2021/06/29 02:26:47;;;;;;;64.68;37.08;;;18.40;99.90;;;;;;4166651;28;19972;-87
2021/06/29 02:28:48;;;;;;;60.40;37.75;;;18.40;99.90;;;;;;4167039;28;20041;-87
2021/06/29 02:30:51;;;;;;;63.58;38.42;;;18.40;99.90;;;;;;4165339;28;20034;-87
2021/06/29 02:32:52;;;;;;;63.92;38.42;;;18.40;99.90;;;;;;4164457;28;20029;-86
2021/06/29 02:34:52;;;;;;;62.10;37.25;;;18.40;99.90;;;;;;4166537;28;20036;-86
2021/06/29 02:37:00;;;;;;;81.25;42.38;;;18.50;99.90;;;;;;4162907;28;20037;-86
2021/06/29 02:39:01;;;;;;;83.13;42.42;;;18.60;99.90;;;;;;4181011;28;20036;-85
2021/06/29 02:41:04;;;;;;;74.30;41.80;;;18.60;99.90;;;;;;4164476;28;20412;-84
2021/06/29 02:43:04;;;;;;;79.85;42.38;;;18.60;99.90;;;;;;4158708;28;20034;-86
2021/06/29 02:45:07;;;;;;;83.50;41.55;;;18.60;99.90;;;;;;4171388;28;20040;-86
2021/06/29 02:47:08;;;;;;;93.47;43.65;;;18.60;99.90;;;;;;4164441;28;20080;-87
2021/06/29 02:49:09;;;;;;;87.15;42.75;;;18.60;99.90;;;;;;4150926;28;20037;-87
2021/06/29 02:51:10;;;;;;;80.95;40.67;;;18.50;99.90;;;;;;4164600;28;20588;-86
2021/06/29 02:53:11;;;;;;;104.43;48.10;;;18.60;99.90;;;;;;4165175;28;20175;-87
2021/06/29 02:55:18;;;;;;;83.47;43.15;;;18.60;99.90;;;;;;4163883;28;20040;-87
2021/06/29 02:57:18;;;;;;;86.45;43.00;;;18.60;99.90;;;;;;4164909;28;20527;-86
2021/06/29 02:59:20;;;;;;;97.28;44.00;;;18.60;99.90;;;;;;4164978;28;20104;-86
2021/06/29 03:01:26;;;;;;;82.78;40.08;;;18.60;99.90;;;;;;4165225;28;20167;-85
2021/06/29 03:03:26;;;;;;;80.97;41.53;;;18.70;99.90;;;;;;4155815;28;20088;-85
2021/06/29 03:05:29;;;;;;;81.45;43.17;;;18.70;99.90;;;;;;4161613;28;20087;-86
2021/06/29 03:07:31;;;;;;;87.18;41.38;;;18.70;99.90;;;;;;4163701;28;20038;-85
2021/06/29 03:09:32;;;;;;;70.97;42.58;;;18.80;99.90;;;;;;4164027;28;20455;-86
2021/06/29 03:11:32;;;;;;;79.38;41.05;;;18.90;99.90;;;;;;4165051;28;20033;-85
2021/06/29 03:13:33;;;;;;;83.53;42.70;;;18.90;99.90;;;;;;4163461;28;20033;-85
2021/06/29 03:15:34;;;;;;;77.97;41.78;;;18.90;99.90;;;;;;4170408;28;20041;-85
2021/06/29 03:17:35;;;;;;;75.07;40.20;;;18.80;99.90;;;;;;4161050;28;20108;-86
2021/06/29 03:19:36;;;;;;;80.45;40.80;;;18.80;99.90;;;;;;4162530;28;20050;-84
2021/06/29 03:21:47;;;;;;;78.85;43.97;;;18.70;99.90;;;;;;4164593;28;20104;-85
2021/06/29 03:23:48;;;;;;;76.43;38.10;;;18.70;99.90;;;;;;4164868;28;20377;-85
2021/06/29 03:25:50;;;;;;;70.22;39.17;;;18.70;99.90;;;;;;4160984;28;20037;-85
2021/06/29 03:27:52;;;;;;;73.25;39.63;;;18.80;99.90;;;;;;4163804;28;20037;-84
2021/06/29 03:29:53;;;;;;;79.80;39.50;;;18.80;99.90;;;;;;4163571;28;20393;-84
2021/06/29 03:31:55;;;;;;;72.82;41.83;;;18.80;99.90;;;;;;4180377;28;20033;-85
2021/06/29 03:33:56;;;;;;;78.00;41.13;;;18.70;99.90;;;;;;4159843;28;20037;-85
2021/06/29 03:35:57;;;;;;;71.95;39.97;;;18.80;99.90;;;;;;4164852;28;20135;-84
2021/06/29 03:37:59;;;;;;;73.72;40.97;;;18.80;99.90;;;;;;4163902;28;20025;-85
2021/06/29 03:40:13;;;;;;;70.38;39.10;;;18.70;99.90;;;;;;4161968;28;20096;-84
2021/06/29 03:42:16;;;;;;;67.07;37.60;;;18.80;99.90;;;;;;4159135;28;20030;-84
2021/06/29 03:44:17;;;;;;;68.47;38.42;;;18.80;99.90;;;;;;4160220;28;20092;-84
2021/06/29 03:46:19;;;;;;;70.40;38.85;;;18.80;99.90;;;;;;4164862;28;20042;-83
2021/06/29 03:48:21;;;;;;;65.32;38.55;;;18.80;99.90;;;;;;4162942;28;20037;-84
2021/06/29 03:50:24;;;;;;;73.63;41.28;;;18.80;99.90;;;;;;4165130;28;20044;-85
2021/06/29 03:52:26;;;;;;;69.47;40.15;;;18.80;99.90;;;;;;4163645;28;20029;-85
2021/06/29 03:54:27;;;;;;;65.95;40.78;;;18.80;99.90;;;;;;4164016;28;20136;-85
2021/06/29 03:56:31;;;;;;;64.07;35.35;;;18.80;99.90;;;;;;4163136;28;20517;-85
2021/06/29 03:58:38;;;;;;;67.30;39.83;;;18.80;99.90;;;;;;4164913;28;20030;-85
2021/06/29 04:00:39;;;;;;;62.90;37.35;;;18.80;99.90;;;;;;4163726;28;20026;-85
2021/06/29 04:02:40;;;;;;;59.00;35.83;;;18.80;99.90;;;;;;4163417;28;20464;-85
2021/06/29 04:04:41;;;;;;;50.50;33.28;;;18.90;99.90;;;;;;4160378;28;20041;-84
2021/06/29 04:06:42;;;;;;;56.00;36.08;;;18.80;99.90;;;;;;4162939;28;20033;-84
2021/06/29 04:08:44;;;;;;;60.95;36.45;;;18.90;99.90;;;;;;4163399;28;20112;-85
2021/06/29 04:10:46;;;;;;;56.38;35.05;;;18.90;99.90;;;;;;4164675;28;20124;-85
2021/06/29 04:12:47;;;;;;;81.35;40.97;;;18.90;99.90;;;;;;4162865;28;20106;-83
2021/06/29 04:14:55;;;;;;;64.07;38.88;;;18.90;99.90;;;;;;4163835;28;20097;-84
2021/06/29 04:16:55;;;;;;;53.17;36.08;;;18.90;99.90;;;;;;4163198;28;20401;-85
2021/06/29 04:18:56;;;;;;;69.47;40.08;;;18.90;99.90;;;;;;4157567;28;20033;-85
2021/06/29 04:20:57;;;;;;;63.47;35.80;;;18.90;99.90;;;;;;4162903;28;20038;-85
2021/06/29 04:22:57;;;;;;;64.22;36.10;;;18.90;99.90;;;;;;4163225;28;20439;-85
2021/06/29 04:24:58;;;;;;;50.63;33.78;;;18.90;99.90;;;;;;4157570;28;20088;-85
2021/06/29 04:26:59;;;;;;;45.70;29.80;;;19.00;99.90;;;;;;4157471;28;20029;-85
2021/06/29 04:28:59;;;;;;;59.05;36.58;;;19.00;99.90;;;;;;4164411;28;20021;-86
2021/06/29 04:31:02;;;;;;;57.60;33.95;;;19.00;99.90;;;;;;4164561;28;20131;-86
2021/06/29 04:33:09;;;;;;;60.40;38.05;;;19.00;99.90;;;;;;4162223;28;20472;-85
2021/06/29 04:35:22;;;;;;;66.15;36.25;;;19.00;99.90;;;;;;4162783;28;20040;-86
2021/06/29 04:37:25;;;;;;;56.83;35.13;;;19.00;99.90;;;;;;4162506;28;20030;-85
2021/06/29 04:39:26;;;;;;;;;;;19.00;99.90;;;;;;4163717;28;20574;-85
2021/06/29 04:41:33;;;;;;;53.75;35.30;;;19.00;99.90;;;;;;4163236;28;19917;-86
2021/06/29 04:43:43;;;;;;;59.55;35.95;;;19.00;99.90;;;;;;4166828;28;20025;-86
2021/06/29 04:45:52;;;;;;;58.80;37.80;;;19.00;99.90;;;;;;4170659;28;20033;-86
2021/06/29 04:47:55;;;;;;;62.92;38.40;;;19.00;99.90;;;;;;4162581;28;20067;-86
2021/06/29 04:50:08;;;;;;;48.25;36.20;;;19.00;99.90;;;;;;4179632;28;20079;-86
2021/06/29 04:52:15;;;;;;;;;;;19.00;99.90;;;;;;4163213;28;20448;-85
2021/06/29 04:54:17;;;;;;;64.57;38.38;;;19.00;99.90;;;;;;4164393;28;19986;-86
2021/06/29 04:56:19;;;;;;;64.20;37.92;;;19.00;99.90;;;;;;4162471;28;20389;-85
2021/06/29 04:58:20;;;;;;;62.95;37.55;;;19.00;99.90;;;;;;4162624;28;20064;-85
2021/06/29 05:00:21;;;;;;;58.67;37.90;;;19.10;99.90;;;;;;4163199;28;20033;-86
2021/06/29 05:02:25;;;;;;;55.90;34.97;;;19.10;99.90;;;;;;4164021;28;20026;-86
2021/06/29 05:04:25;;;;;;;56.05;36.08;;;19.10;99.90;;;;;;4164128;28;20030;-85
2021/06/29 05:06:28;;;;;;;62.75;36.72;;;19.10;99.90;;;;;;4164246;28;20044;-85
2021/06/29 05:08:30;;;;;;;67.95;41.35;;;19.20;99.90;;;;;;4167331;28;20588;-86
2021/06/29 05:10:37;;;;;;;70.55;39.75;;;19.20;99.90;;;;;;4170286;28;20033;-85
2021/06/29 05:12:40;;;;;;;68.95;39.08;;;19.10;99.90;;;;;;4167207;28;20029;-86
2021/06/29 05:14:50;;;;;;;73.07;39.78;;;19.10;99.90;;;;;;4167150;28;20116;-86
2021/06/29 05:16:51;;;;;;;67.95;38.03;;;19.10;99.90;;;;;;4164478;28;20018;-87
2021/06/29 05:18:52;;;;;;;66.97;40.75;;;19.00;99.90;;;;;;4165204;28;20556;-86
2021/06/29 05:20:54;;;;;;;66.90;39.00;;;19.00;99.90;;;;;;4165680;28;20045;-86
2021/06/29 05:22:56;;;;;;;64.97;40.25;;;19.00;99.90;;;;;;4156868;28;20104;-87
2021/06/29 05:25:06;;;;;;;70.63;40.83;;;19.00;99.90;;;;;;4165879;28;20503;-87
2021/06/29 05:27:07;;;;;;;70.35;39.67;;;19.00;99.90;;;;;;4158027;28;20106;-87
2021/06/29 05:29:07;;;;;;;62.13;39.20;;;18.90;99.90;;;;;;4170622;28;20041;-84
2021/06/29 05:31:08;;;;;;;77.03;42.53;;;18.90;99.90;;;;;;4166514;28;20038;-84
2021/06/29 05:33:08;;;;;;;58.15;37.05;;;18.90;99.90;;;;;;4165923;28;20033;-85
2021/06/29 05:35:09;;;;;;;71.05;41.83;;;19.00;99.90;;;;;;4166356;28;20105;-85
2021/06/29 05:37:10;;;;;;;72.00;42.50;;;18.90;99.90;;;;;;4166378;28;20076;-84
2021/06/29 05:39:15;;;;;;;63.97;40.58;;;18.90;99.90;;;;;;4166153;28;20033;-85
2021/06/29 05:41:17;;;;;;;62.60;39.60;;;18.90;99.90;;;;;;4164544;28;20461;-86
2021/06/29 05:43:25;;;;;;;67.95;40.78;;;18.90;99.90;;;;;;4143596;28;20485;-87
2021/06/29 05:45:26;;;;;;;71.80;42.20;;;18.90;99.90;;;;;;4162037;28;20029;-88
2021/06/29 05:47:27;;;;;;;70.47;40.92;;;18.90;99.90;;;;;;4157950;28;20048;-86
2021/06/29 05:49:27;;;;;;;69.05;44.63;;;18.90;99.90;;;;;;4161614;28;20033;-86
2021/06/29 05:51:28;;;;;;;65.18;43.08;;;18.90;99.90;;;;;;4164600;28;20028;-88
2021/06/29 05:53:31;;;;;;;64.85;38.95;;;19.00;99.90;;;;;;4165013;28;20026;-87
2021/06/29 05:55:32;;;;;;;63.72;40.42;;;19.00;99.90;;;;;;4163903;28;20038;-86
2021/06/29 05:57:32;;;;;;;55.10;39.53;;;19.00;99.90;;;;;;4164492;28;20578;-84
2021/06/29 05:59:33;;;;;;;59.45;39.13;;;19.00;99.90;;;;;;4162833;28;20349;-86
2021/06/29 06:01:40;;;;;;;49.78;35.40;;;19.10;99.90;;;;;;4164634;28;20121;-87
2021/06/29 06:03:43;;;;;;;49.50;37.15;;;19.20;99.90;;;;;;4163919;28;20124;-84
2021/06/29 06:05:43;;;;;;;56.03;39.10;;;19.30;99.90;;;;;;4164314;28;20091;-84
2021/06/29 06:08:04;;;;;;;51.10;36.50;;;19.40;99.90;;;;;;4164499;28;20037;-84
2021/06/29 06:10:07;;;;;;;56.80;40.75;;;19.40;99.90;;;;;;4163328;28;20086;-84
2021/06/29 06:12:08;;;;;;;;;;;19.50;99.90;;;;;;4164543;28;20044;-87
2021/06/29 06:14:09;;;;;;;62.80;41.03;;;19.50;99.90;;;;;;4164621;28;19909;-85
2021/06/29 06:16:14;;;;;;;55.95;37.95;;;19.60;99.90;;;;;;4167962;28;20036;-86
2021/06/29 06:18:15;;;;;;;49.45;34.22;;;19.50;99.90;;;;;;4164751;28;20567;-84
2021/06/29 06:20:18;;;;;;;47.88;35.90;;;19.60;99.90;;;;;;4163672;28;20057;-86
2021/06/29 06:22:21;;;;;;;48.10;33.38;;;19.60;99.90;;;;;;4164349;28;20039;-85
2021/06/29 06:24:22;;;;;;;45.35;33.20;;;19.60;99.90;;;;;;4163000;28;20113;-86
2021/06/29 06:26:29;;;;;;;48.38;36.33;;;19.60;99.90;;;;;;4164438;28;20034;-87
2021/06/29 06:28:41;;;;;;;49.60;35.10;;;19.60;99.90;;;;;;4164874;28;20041;-86
2021/06/29 06:30:42;;;;;;;39.97;30.52;;;19.60;99.90;;;;;;4165612;28;20393;-87
2021/06/29 06:32:43;;;;;;;39.80;30.15;;;19.80;99.90;;;;;;4164111;28;20045;-84
2021/06/29 06:34:44;;;;;;;40.75;30.30;;;19.80;99.90;;;;;;4164646;28;20030;-85
2021/06/29 06:36:47;;;;;;;32.25;25.65;;;19.90;99.90;;;;;;4164642;28;20029;-83
2021/06/29 06:38:47;;;;;;;34.65;26.63;;;20.00;99.90;;;;;;4163661;28;20033;-81
2021/06/29 06:40:48;;;;;;;31.38;25.88;;;20.20;99.90;;;;;;4164054;28;20521;-83
2021/06/29 06:42:49;;;;;;;34.45;26.23;;;20.00;99.90;;;;;;4163882;28;20029;-83
2021/06/29 06:44:52;;;;;;;37.95;27.02;;;20.10;99.90;;;;;;4164199;28;20025;-83
2021/06/29 06:46:53;;;;;;;;;;;20.10;99.90;;;;;;4164870;28;20065;-81
2021/06/29 06:48:54;;;;;;;32.17;25.10;;;20.10;99.90;;;;;;4163363;28;19917;-81
2021/06/29 06:50:55;;;;;;;30.63;24.90;;;20.30;99.90;;;;;;4163141;28;20030;-82
2021/06/29 06:52:57;;;;;;;28.23;24.17;;;20.30;99.90;;;;;;4163189;28;20052;-83
2021/06/29 06:54:57;;;;;;;26.40;23.65;;;20.30;99.90;;;;;;4163468;28;20722;-82
2021/06/29 06:56:58;;;;;;;28.63;25.60;;;20.30;99.90;;;;;;4165485;28;20025;-83
2021/06/29 06:58:59;;;;;;;29.85;25.55;;;20.30;99.90;;;;;;4164176;28;20029;-82
2021/06/29 07:01:00;;;;;;;30.65;25.40;;;20.30;99.90;;;;;;4164439;28;20026;-82
2021/06/29 07:03:00;;;;;;;28.17;25.17;;;20.20;99.90;;;;;;4164331;28;20037;-83
2021/06/29 07:05:01;;;;;;;27.27;24.42;;;20.00;99.90;;;;;;4162894;28;20501;-82
2021/06/29 07:07:02;;;;;;;28.63;25.55;;;20.00;99.90;;;;;;4164028;28;20034;-82
2021/06/29 07:09:04;;;;;;;29.50;25.92;;;20.10;99.90;;;;;;4163762;28;20029;-82
2021/06/29 07:11:06;;;;;;;28.70;24.20;;;20.30;99.90;;;;;;4165214;28;20033;-84
2021/06/29 07:13:07;;;;;;;31.95;27.48;;;20.40;99.90;;;;;;4164840;28;20033;-83
2021/06/29 07:15:09;;;;;;;28.67;25.27;;;20.20;99.90;;;;;;4167889;28;20099;-83
2021/06/29 07:17:10;;;;;;;28.93;23.93;;;20.20;99.90;;;;;;4159651;28;20511;-83
2021/06/29 07:19:12;;;;;;;25.10;22.52;;;20.30;99.90;;;;;;4165090;28;20033;-83
2021/06/29 07:21:13;;;;;;;25.30;22.63;;;20.30;99.90;;;;;;4171508;28;20113;-84
2021/06/29 07:23:19;;;;;;;29.20;23.27;;;20.40;99.90;;;;;;4164858;28;20029;-80
2021/06/29 07:25:20;;;;;;;27.30;24.38;;;20.30;99.90;;;;;;4164740;28;20888;-79
2021/06/29 07:27:24;;;;;;;27.85;24.38;;;20.40;99.90;;;;;;4162840;28;20038;-79
2021/06/29 07:29:26;;;;;;;28.20;25.38;;;20.30;99.90;;;;;;4150871;28;20481;-79
2021/06/29 07:31:26;;;;;;;27.85;25.05;;;20.40;99.90;;;;;;4171314;28;20445;-79
2021/06/29 07:33:27;;;;;;;32.90;25.42;;;20.30;99.90;;;;;;4164352;28;20044;-79
2021/06/29 07:35:28;;;;;;;31.27;26.50;;;20.20;99.90;;;;;;4164332;28;20473;-78
2021/06/29 07:37:30;;;;;;;30.17;25.45;;;20.20;99.90;;;;;;4164251;28;20031;-79
2021/06/29 07:39:37;;;;;;;26.75;23.77;;;20.30;99.90;;;;;;4162749;28;20048;-78
2021/06/29 07:41:39;;;;;;;28.40;24.50;;;20.40;99.90;;;;;;4155444;28;20042;-79
2021/06/29 07:43:40;;;;;;;30.27;26.43;;;20.50;99.90;;;;;;4162636;28;20107;-79
2021/06/29 07:45:41;;;;;;;33.67;25.88;;;20.50;99.90;;;;;;4160251;28;20087;-79
2021/06/29 07:47:43;;;;;;;29.05;25.55;;;20.50;99.90;;;;;;4162835;28;20038;-79
2021/06/29 07:49:44;;;;;;;27.38;23.77;;;20.50;99.90;;;;;;4162728;28;20036;-79
2021/06/29 07:51:44;;;;;;;27.67;24.42;;;20.50;99.90;;;;;;4153462;28;20033;-78
2021/06/29 07:53:46;;;;;;;27.20;24.35;;;20.60;99.90;;;;;;4161904;28;20049;-79
2021/06/29 07:55:49;;;;;;;27.00;23.35;;;20.60;99.90;;;;;;4161606;28;20029;-80
2021/06/29 07:57:50;;;;;;;35.35;27.10;;;20.50;99.90;;;;;;4162111;28;20381;-79
2021/06/29 07:59:51;;;;;;;36.97;27.23;;;20.30;99.90;;;;;;4163199;28;20108;-77
2021/06/29 08:01:52;;;;;;;37.08;28.63;;;20.20;99.90;;;;;;4162288;28;20037;-78
2021/06/29 08:03:52;;;;;;;33.05;27.05;;;20.20;99.90;;;;;;4163466;28;20178;-78
2021/06/29 08:05:53;;;;;;;32.47;28.98;;;20.00;99.90;;;;;;4163023;28;20392;-79
2021/06/29 08:07:53;;;;;;;34.97;29.45;;;19.90;99.90;;;;;;4161840;28;21062;-78
2021/06/29 08:09:54;;;;;;;29.88;26.63;;;19.90;99.90;;;;;;4160902;28;20037;-78
2021/06/29 08:11:55;;;;;;;35.63;29.10;;;20.00;99.90;;;;;;4164008;28;20510;-78
2021/06/29 08:13:56;;;;;;;34.72;28.90;;;19.90;99.90;;;;;;4160725;28;20098;-78
2021/06/29 08:15:56;;;;;;;31.48;28.15;;;19.90;99.90;;;;;;4161084;28;20068;-79
2021/06/29 08:17:57;;;;;;;32.80;27.20;;;20.00;99.90;;;;;;4159747;28;20083;-78
2021/06/29 08:19:58;;;;;;;32.22;28.30;;;20.20;99.90;;;;;;4156888;28;20052;-78
2021/06/29 08:21:59;;;;;;;33.22;27.40;;;20.10;99.90;;;;;;4162928;28;20029;-77
2021/06/29 08:24:00;;;;;;;33.60;28.20;;;20.30;99.90;;;;;;4160414;28;20045;-78
2021/06/29 08:26:01;;;;;;;28.70;25.50;;;20.30;99.90;;;;;;4163278;28;20041;-78
2021/06/29 08:28:02;;;;;;;32.17;27.90;;;20.50;99.90;;;;;;4162413;28;20365;-79
2021/06/29 08:30:07;;;;;;;29.83;26.27;;;20.70;99.90;;;;;;4158949;28;20112;-78
2021/06/29 08:32:08;;;;;;;31.35;27.55;;;20.80;99.90;;;;;;4153776;28;20420;-78
2021/06/29 08:34:09;;;;;;;29.25;26.25;;;20.80;99.90;;;;;;4159872;28;20034;-79
2021/06/29 08:36:10;;;;;;;32.85;27.55;;;20.90;99.90;;;;;;4160528;28;20045;-78
2021/06/29 08:38:13;;;;;;;31.17;27.90;;;21.00;99.90;;;;;;4161175;28;20460;-79
2021/06/29 08:40:14;;;;;;;33.38;29.63;;;21.10;99.90;;;;;;4162824;28;20025;-78
2021/06/29 08:42:21;;;;;;;32.15;28.63;;;21.10;99.90;;;;;;4162247;28;20149;-79
2021/06/29 08:44:23;;;;;;;31.33;27.98;;;21.10;99.90;;;;;;4161205;28;20041;-79
2021/06/29 08:46:24;;;;;;;30.88;27.58;;;21.10;99.90;;;;;;4162822;28;20384;-78
2021/06/29 08:48:24;;;;;;;30.92;27.75;;;21.00;99.90;;;;;;4161358;28;20104;-78
2021/06/29 08:50:29;;;;;;;32.42;27.58;;;20.90;99.90;;;;;;4161547;28;20713;-78
2021/06/29 08:52:31;;;;;;;32.47;28.10;;;20.90;99.90;;;;;;4160797;28;20423;-78
2021/06/29 08:54:33;;;;;;;31.90;28.60;;;20.80;99.90;;;;;;4159393;28;20046;-79
2021/06/29 08:56:34;;;;;;;32.28;28.88;;;20.80;99.90;;;;;;4160046;28;20048;-78
2021/06/29 08:58:35;;;;;;;29.77;26.63;;;21.00;99.90;;;;;;4162139;28;20493;-77
2021/06/29 09:00:37;;;;;;;29.85;26.95;;;21.20;99.90;;;;;;4160622;28;20065;-78
2021/06/29 09:02:39;;;;;;;31.98;28.67;;;21.30;99.90;;;;;;4160482;28;20652;-78
2021/06/29 09:04:44;;;;;;;29.23;26.38;;;21.20;99.90;;;;;;4159513;28;20071;-78
2021/06/29 09:06:44;;;;;;;28.77;25.60;;;21.40;99.90;;;;;;4161682;28;20040;-77
2021/06/29 09:08:45;;;;;;;27.92;25.05;;;21.80;99.90;;;;;;4160012;28;20040;-77
2021/06/29 09:11:13;;;;;;;28.83;25.90;;;22.20;99.90;;;;;;4158546;28;20065;-78
2021/06/29 09:13:21;;;;;;;29.38;26.40;;;22.40;99.90;;;;;;4161535;28;20033;-77
2021/06/29 09:15:35;;;;;;;31.52;27.92;;;22.70;99.90;;;;;;4162047;28;20481;-78
2021/06/29 09:17:38;;;;;;;33.40;29.98;;;22.80;99.90;;;;;;4160606;28;20132;-77
2021/06/29 09:19:38;;;;;;;35.25;31.08;;;22.90;99.90;;;;;;4161665;28;20049;-77
2021/06/29 09:21:39;;;;;;;32.42;29.13;;;22.90;99.90;;;;;;4161230;28;20041;-77
2021/06/29 09:23:49;;;;;;;32.90;29.63;;;22.90;99.90;;;;;;4159676;28;20041;-77
2021/06/29 09:25:55;;;;;;;34.97;31.45;;;22.90;99.90;;;;;;4158807;28;20513;-78
2021/06/29 09:27:57;;;;;;;34.22;30.67;;;22.90;99.90;;;;;;4175714;28;20391;-77
2021/06/29 09:29:58;;;;;;;36.38;32.85;;;22.80;99.90;;;;;;4161111;28;20489;-77
2021/06/29 09:32:00;;;;;;;36.35;32.67;;;22.60;99.90;;;;;;4160700;28;20049;-77
2021/06/29 09:34:08;;;;;;;35.67;31.90;;;22.40;99.90;;;;;;4160785;28;20124;-77
2021/06/29 09:36:23;;;;;;;37.88;34.17;;;22.40;99.90;;;;;;4159469;28;20030;-77
2021/06/29 09:38:32;;;;;;;35.67;32.03;;;22.60;99.90;;;;;;4161245;28;20041;-77
2021/06/29 09:40:34;;;;;;;34.83;31.30;;;22.90;99.90;;;;;;4160172;28;20032;-77
2021/06/29 09:42:35;;;;;;;35.25;31.73;;;23.20;99.90;;;;;;4160372;28;20120;-77
2021/06/29 09:44:36;;;;;;;36.15;32.53;;;23.50;99.90;;;;;;4159259;28;20061;-77
2021/06/29 09:46:39;;;;;;;36.67;33.25;;;23.70;99.90;;;;;;4162447;28;20091;-78
2021/06/29 09:48:49;;;;;;;35.38;31.77;;;23.60;99.90;;;;;;4160682;28;20489;-77
2021/06/29 09:50:53;;;;;;;34.42;31.02;;;23.60;99.90;;;;;;4162677;28;20030;-77
2021/06/29 09:52:54;;;;;;;34.10;30.50;;;23.40;99.90;;;;;;4163021;28;20036;-76
2021/06/29 09:54:54;;;;;;;33.67;30.30;;;23.30;99.90;;;;;;4165152;28;20039;-77
2021/06/29 09:56:56;;;;;;;34.38;30.83;;;23.20;99.90;;;;;;4163368;28;20049;-77
2021/06/29 09:58:58;;;;;;;33.25;29.88;;;22.90;99.90;;;;;;4163542;28;20118;-77
2021/06/29 10:01:02;;;;;;;30.25;27.27;;;22.80;99.90;;;;;;4165405;28;20021;-77
2021/06/29 10:03:28;;;;;;;28.50;25.83;;;22.80;99.90;;;;;;4163766;28;20091;-77
2021/06/29 10:05:31;;;;;;;27.95;25.13;;;22.90;99.90;;;;;;4164222;28;20113;-77
2021/06/29 10:07:37;;;;;;;;;;;23.40;99.90;;;;;;4165643;28;20096;-77
2021/06/29 10:09:38;;;;;;;29.95;24.98;;;23.80;99.90;;;;;;4165473;28;19944;-77
2021/06/29 10:11:43;;;;;;;28.73;25.88;;;24.20;99.90;;;;;;4164057;28;20037;-78
2021/06/29 10:13:46;;;;;;;27.63;25.05;;;24.50;99.90;;;;;;4165472;28;20433;-78
2021/06/29 10:15:47;;;;;;;25.75;23.08;;;24.60;99.90;;;;;;4163805;28;20072;-78
2021/06/29 10:17:48;;;;;;;21.98;19.73;;;24.70;99.90;;;;;;4163591;28;20037;-77
2021/06/29 10:20:10;;;;;;;21.15;18.88;;;24.80;99.90;;;;;;4162853;28;20038;-77
2021/06/29 10:22:17;;;;;;;23.63;21.25;;;24.90;99.90;;;;;;4153741;28;20093;-78
2021/06/29 10:24:21;;;;;;;21.45;19.35;;;24.70;99.90;;;;;;4161210;28;20112;-78
2021/06/29 10:26:24;;;;;;;21.75;19.67;;;24.40;99.90;;;;;;4178189;28;20041;-77
2021/06/29 10:28:25;;;;;;;22.58;20.38;;;24.40;99.90;;;;;;4178123;28;20553;-77